Time;durP1;ratioP1;P1;durP2;ratioP2;P2;SDS_P1;SDS_P2;PMS_P1;PMS_P2;Temp;Humidity;BMP_temperature;BMP_pressure;BME280_temperature;BME280_humidity;BME280_pressure;Samples;Min_cycle;Max_cycle;Signal;HPM_P1;HPM_P2
2023/06/03 00:01:34;;;;;;;6.45;5.80;;;16.40;99.90;;;;;;1906068;74;21650;-79
2023/06/03 00:07:07;;;;;;;9.10;6.67;;;16.50;99.90;;;;;;1958035;73;22230;-81
2023/06/03 00:09:59;;;;;;;7.55;6.45;;;16.50;99.90;;;;;;1887818;75;21135;-81
2023/06/03 00:12:51;;;;;;;7.97;6.78;;;16.50;99.90;;;;;;1906620;75;21139;-80
2023/06/03 00:15:43;;;;;;;8.08;6.95;;;16.50;99.90;;;;;;1904357;75;21148;-79
2023/06/03 00:18:34;;;;;;;7.03;5.97;;;16.50;99.90;;;;;;1884667;75;21166;-79
2023/06/03 00:21:27;;;;;;;8.30;5.30;;;16.50;99.90;;;;;;1894147;75;21102;-79
2023/06/03 00:27:00;;;;;;;4.15;3.17;;;16.60;99.90;;;;;;1914238;72;22204;-79
2023/06/03 00:32:29;;;;;;;5.90;4.12;;;16.50;99.90;;;;;;1928466;72;22744;-79
2023/06/03 00:35:20;;;;;;;4.17;3.72;;;16.50;99.90;;;;;;1872943;75;21405;-79
2023/06/03 00:38:18;;;;;;;3.75;3.30;;;16.50;99.90;;;;;;1888005;75;21106;-79
2023/06/03 00:41:09;;;;;;;3.65;2.42;;;16.50;99.90;;;;;;1873261;75;21220;-79
2023/06/03 00:44:01;;;;;;;3.35;2.90;;;16.50;99.90;;;;;;1894281;75;21165;-79
2023/06/03 00:46:53;;;;;;;2.20;1.80;;;16.50;99.90;;;;;;1872463;76;21226;-79
2023/06/03 00:52:28;;;;;;;2.87;2.10;;;16.50;99.90;;;;;;1955241;72;22115;-79
2023/06/03 00:55:20;;;;;;;2.85;2.15;;;16.50;99.90;;;;;;1895816;74;21113;-80
2023/06/03 00:58:12;;;;;;;3.67;2.50;;;16.40;99.90;;;;;;1894885;75;21174;-80
2023/06/03 01:01:03;;;;;;;3.27;1.92;;;16.40;99.90;;;;;;1898562;75;21064;-80
2023/06/03 01:03:56;;;;;;;3.92;2.20;;;16.30;99.90;;;;;;1896917;75;21094;-80
2023/06/03 01:06:54;;;;;;;4.37;1.95;;;16.30;99.90;;;;;;1908757;75;21098;-79
2023/06/03 01:09:56;;;;;;;4.65;2.47;;;16.30;99.90;;;;;;1906134;75;21094;-80
2023/06/03 01:12:54;;;;;;;4.33;2.45;;;16.20;99.90;;;;;;1906219;75;21159;-79
2023/06/03 01:15:49;;;;;;;2.37;1.90;;;16.10;99.90;;;;;;1904942;75;21110;-79
2023/06/03 01:18:41;;;;;;;3.35;2.20;;;16.10;99.90;;;;;;1884333;76;21692;-79
2023/06/03 01:21:38;;;;;;;5.08;2.50;;;16.10;99.90;;;;;;1895328;75;21129;-79
2023/06/03 01:24:30;;;;;;;4.08;2.10;;;16.00;99.90;;;;;;1910525;75;21702;-79
2023/06/03 01:27:21;;;;;;;2.30;2.10;;;16.00;99.90;;;;;;1906139;75;21110;-79
2023/06/03 01:30:15;;;;;;;3.92;2.40;;;16.00;99.90;;;;;;1902978;75;21123;-79
2023/06/03 01:33:07;;;;;;;4.40;2.20;;;16.00;99.90;;;;;;1898077;75;21123;-79
2023/06/03 01:36:01;;;;;;;4.40;2.30;;;16.00;99.90;;;;;;1894689;75;21173;-79
2023/06/03 01:38:54;;;;;;;3.10;2.50;;;16.00;99.90;;;;;;1894184;75;21136;-79
2023/06/03 01:41:47;;;;;;;4.00;2.27;;;15.90;99.90;;;;;;1895964;75;21138;-79
2023/06/03 01:44:41;;;;;;;3.52;2.30;;;15.80;99.90;;;;;;1900228;75;21160;-79
2023/06/03 01:47:34;;;;;;;2.92;2.40;;;15.70;99.90;;;;;;1895597;75;21051;-79
2023/06/03 01:50:26;;;;;;;2.98;2.35;;;15.70;99.90;;;;;;1895031;75;21513;-79
2023/06/03 01:53:18;;;;;;;3.08;2.52;;;15.70;99.90;;;;;;1904119;74;21207;-79
2023/06/03 01:56:10;;;;;;;3.25;2.90;;;15.70;99.90;;;;;;1926831;74;21110;-79
2023/06/03 01:59:02;;;;;;;3.00;2.70;;;15.80;99.90;;;;;;1906386;74;21050;-79
2023/06/03 02:01:54;;;;;;;4.90;3.42;;;15.80;99.90;;;;;;1919369;74;21086;-79
2023/06/03 02:04:46;;;;;;;4.95;3.37;;;15.80;99.90;;;;;;1915155;74;21131;-79
2023/06/03 02:07:37;;;;;;;4.92;3.42;;;15.80;99.90;;;;;;1893060;76;21211;-79
2023/06/03 02:10:30;;;;;;;6.42;3.20;;;15.80;99.90;;;;;;1893243;76;21530;-79
2023/06/03 02:13:21;;;;;;;5.22;3.00;;;15.90;99.90;;;;;;1915402;74;21101;-79
2023/06/03 02:16:13;;;;;;;3.25;2.95;;;15.80;99.90;;;;;;1915070;74;21137;-79
2023/06/03 02:19:13;;;;;;;4.55;3.22;;;15.80;99.90;;;;;;1914039;74;21110;-79
2023/06/03 02:22:05;;;;;;;3.90;2.65;;;15.80;99.90;;;;;;1893064;76;21179;-79
2023/06/03 02:24:57;;;;;;;3.92;2.83;;;15.90;99.90;;;;;;1905181;74;21110;-79
2023/06/03 02:27:50;;;;;;;3.58;2.47;;;15.90;99.90;;;;;;1903753;74;21488;-79
2023/06/03 02:30:41;;;;;;;2.72;2.50;;;15.90;99.90;;;;;;1903994;74;21110;-79
2023/06/03 02:33:32;;;;;;;3.45;2.72;;;15.90;99.90;;;;;;1907806;74;21066;-79
2023/06/03 02:36:24;;;;;;;3.25;2.55;;;15.90;99.90;;;;;;1906308;74;21131;-79
2023/06/03 02:39:24;;;;;;;2.72;2.30;;;15.80;99.90;;;;;;1903995;74;21086;-79
2023/06/03 02:42:15;;;;;;;5.20;2.55;;;15.80;99.90;;;;;;1904193;74;21086;-79
2023/06/03 02:45:10;;;;;;;4.15;2.60;;;15.70;99.90;;;;;;1904403;74;21074;-80
2023/06/03 02:48:01;;;;;;;3.42;1.87;;;15.70;99.90;;;;;;1908546;74;21527;-79
2023/06/03 02:50:52;;;;;;;3.55;2.40;;;15.70;99.90;;;;;;1905902;74;21084;-79
2023/06/03 02:53:44;;;;;;;3.22;2.20;;;15.70;99.90;;;;;;1896563;74;21677;-79
2023/06/03 02:56:36;;;;;;;2.33;2.17;;;15.70;99.90;;;;;;1894883;74;21619;-79
2023/06/03 02:59:27;;;;;;;5.58;2.62;;;15.60;99.90;;;;;;1907316;74;21092;-79
2023/06/03 03:02:20;;;;;;;6.37;2.77;;;15.60;99.90;;;;;;1905802;74;21082;-79
2023/06/03 03:05:12;;;;;;;3.25;2.50;;;15.60;99.90;;;;;;1896180;74;21183;-79
2023/06/03 03:08:06;;;;;;;4.60;3.33;;;15.60;99.90;;;;;;1915438;74;21143;-79
2023/06/03 03:10:58;;;;;;;5.90;2.85;;;15.50;99.90;;;;;;1913713;74;21102;-79
2023/06/03 03:13:49;;;;;;;5.28;3.20;;;15.60;99.90;;;;;;1911170;74;21121;-79
2023/06/03 03:16:41;;;;;;;4.10;3.55;;;15.60;99.90;;;;;;1915122;74;21117;-79
2023/06/03 03:19:35;;;;;;;6.28;3.15;;;15.60;99.90;;;;;;1920304;74;21170;-79
2023/06/03 03:22:27;;;;;;;3.27;2.98;;;15.50;99.90;;;;;;1926072;74;21093;-79
2023/06/03 03:25:19;;;;;;;3.75;3.30;;;15.60;99.90;;;;;;1909989;74;21062;-79
2023/06/03 03:28:10;;;;;;;4.33;3.30;;;15.50;99.90;;;;;;1905077;74;21093;-79
2023/06/03 03:31:05;;;;;;;4.00;3.20;;;15.50;99.90;;;;;;1904029;74;21113;-79
2023/06/03 03:33:57;;;;;;;4.28;3.00;;;15.50;99.90;;;;;;1904129;74;21097;-79
2023/06/03 03:36:48;;;;;;;5.30;3.37;;;15.50;99.90;;;;;;1906656;74;21614;-79
2023/06/03 03:39:40;;;;;;;4.50;3.10;;;15.50;99.90;;;;;;1907712;74;21094;-79
2023/06/03 03:42:32;;;;;;;7.35;3.35;;;15.50;99.90;;;;;;1903225;74;21558;-79
2023/06/03 03:45:27;;;;;;;3.20;2.87;;;15.20;99.90;;;;;;1899955;74;21983;-79
2023/06/03 03:48:20;;;;;;;4.33;3.37;;;15.30;99.90;;;;;;1914562;74;21117;-79
2023/06/03 03:51:14;;;;;;;6.87;3.52;;;15.30;99.90;;;;;;1909714;74;21050;-79
2023/06/03 03:54:06;;;;;;;3.10;2.80;;;15.30;99.90;;;;;;1894026;75;21139;-79
2023/06/03 03:56:58;;;;;;;3.22;2.30;;;15.40;99.90;;;;;;1881955;75;21103;-79
2023/06/03 03:59:50;;;;;;;3.87;2.75;;;15.30;99.90;;;;;;1882339;75;21196;-79
2023/06/03 04:02:43;;;;;;;6.20;2.70;;;15.40;99.90;;;;;;1898093;75;21126;-79
2023/06/03 04:05:35;;;;;;;3.33;2.40;;;15.40;99.90;;;;;;1896958;75;21541;-79
2023/06/03 04:08:45;;;;;;;2.85;2.00;;;15.50;99.90;;;;;;1882186;75;21666;-79
2023/06/03 04:11:40;;;;;;;3.87;2.00;;;15.50;99.90;;;;;;1882301;75;21197;-79
2023/06/03 04:14:44;;;;;;;4.17;1.95;;;15.50;99.90;;;;;;1894144;75;21058;-79
2023/06/03 04:17:30;;;;;;;3.45;2.20;;;15.50;99.90;;;;;;1915692;75;21111;-79
2023/06/03 04:20:33;;;;;;;4.12;1.92;;;15.40;99.90;;;;;;1898976;75;21102;-79
2023/06/03 04:23:28;;;;;;;2.65;2.35;;;15.40;99.90;;;;;;1883098;76;21191;-79
2023/06/03 04:26:21;;;;;;;3.37;2.25;;;15.50;99.90;;;;;;1892977;75;21105;-79
2023/06/03 04:29:14;;;;;;;4.55;2.50;;;15.50;99.90;;;;;;1870834;75;21122;-79
2023/06/03 04:32:07;;;;;;;2.20;2.00;;;15.50;99.90;;;;;;1892281;75;21084;-79
2023/06/03 04:34:59;;;;;;;3.37;2.30;;;15.50;99.90;;;;;;1899912;75;21067;-80
2023/06/03 04:37:50;;;;;;;2.40;2.15;;;15.50;99.90;;;;;;1882987;75;21088;-79
2023/06/03 04:40:46;;;;;;;2.22;1.87;;;15.50;99.90;;;;;;1876452;75;21103;-79
2023/06/03 04:43:38;;;;;;;2.20;2.00;;;15.50;99.90;;;;;;1893157;75;21120;-79
2023/06/03 04:46:31;;;;;;;2.92;1.95;;;15.50;99.90;;;;;;1889927;75;21186;-79
2023/06/03 04:49:24;;;;;;;2.20;2.00;;;15.50;99.90;;;;;;1897806;75;21549;-79
2023/06/03 04:52:15;;;;;;;4.62;2.00;;;15.60;99.90;;;;;;1893975;75;21633;-79
2023/06/03 04:55:10;;;;;;;2.72;2.17;;;15.60;99.90;;;;;;1890420;75;21619;-79
2023/06/03 04:58:02;;;;;;;3.15;2.02;;;15.60;99.90;;;;;;1904620;75;21161;-79
2023/06/03 05:00:55;;;;;;;2.05;1.85;;;15.60;99.90;;;;;;1899597;75;21144;-79
2023/06/03 05:03:47;;;;;;;2.55;1.80;;;15.80;99.90;;;;;;1882956;75;21495;-79
2023/06/03 05:06:38;;;;;;;4.72;1.82;;;15.80;99.90;;;;;;1894174;75;21184;-79
2023/06/03 05:09:30;;;;;;;3.00;2.00;;;15.90;99.90;;;;;;1894583;75;21094;-79
2023/06/03 05:12:23;;;;;;;2.22;1.82;;;15.90;99.90;;;;;;1898172;75;21110;-79
2023/06/03 05:15:14;;;;;;;3.62;2.05;;;15.90;99.90;;;;;;1896724;75;21082;-79
2023/06/03 05:18:07;;;;;;;3.02;2.08;;;15.80;99.90;;;;;;1894207;75;21197;-79
2023/06/03 05:20:58;;;;;;;2.30;2.10;;;15.80;99.90;;;;;;1894114;75;21160;-79
2023/06/03 05:23:49;;;;;;;3.80;1.80;;;15.80;99.90;;;;;;1896538;75;21095;-79
2023/06/03 05:26:40;;;;;;;2.87;1.82;;;15.80;99.90;;;;;;1897391;75;21102;-79
2023/06/03 05:29:32;;;;;;;2.00;1.65;;;15.80;99.90;;;;;;1881942;75;21048;-79
2023/06/03 05:32:25;;;;;;;3.15;1.90;;;15.80;99.90;;;;;;1881951;75;21157;-79
2023/06/03 05:35:19;;;;;;;4.35;2.00;;;15.80;99.90;;;;;;1903308;75;21598;-79
2023/06/03 05:38:11;;;;;;;2.98;2.00;;;15.90;99.90;;;;;;1887788;75;21180;-79
2023/06/03 05:41:03;;;;;;;2.77;2.12;;;16.00;99.90;;;;;;1871287;75;21661;-79
2023/06/03 05:43:56;;;;;;;3.25;1.98;;;16.10;99.90;;;;;;1893463;75;21598;-79
2023/06/03 05:46:48;;;;;;;3.08;2.33;;;16.20;99.90;;;;;;1893342;75;21542;-79
2023/06/03 05:49:39;;;;;;;3.02;2.42;;;16.20;99.90;;;;;;1871325;75;21174;-81
2023/06/03 05:52:31;;;;;;;2.55;1.90;;;16.30;99.90;;;;;;1882960;75;21153;-80
2023/06/03 05:55:23;;;;;;;3.00;2.10;;;16.30;99.90;;;;;;1887064;74;21247;-80
2023/06/03 05:58:14;;;;;;;3.95;2.10;;;16.40;99.90;;;;;;1903962;74;21567;-80
2023/06/03 06:01:06;;;;;;;2.75;2.30;;;16.50;99.90;;;;;;1907682;74;21097;-79
2023/06/03 06:03:58;;;;;;;3.62;2.47;;;16.60;99.90;;;;;;1906038;74;21638;-80
2023/06/03 06:06:50;;;;;;;4.45;2.37;;;16.60;99.90;;;;;;1903830;74;21111;-80
2023/06/03 06:09:42;;;;;;;5.47;2.30;;;16.60;99.90;;;;;;1922947;74;21226;-79
2023/06/03 06:12:34;;;;;;;2.70;2.50;;;16.60;99.90;;;;;;1912786;74;21062;-79
2023/06/03 06:15:29;;;;;;;2.40;2.20;;;16.60;99.90;;;;;;1910785;74;21601;-76
2023/06/03 06:18:24;;;;;;;3.80;2.50;;;16.50;99.90;;;;;;1915234;74;21443;-77
2023/06/03 06:21:16;;;;;;;3.45;2.85;;;16.60;99.90;;;;;;1892936;76;21160;-76
2023/06/03 06:24:08;;;;;;;3.30;2.55;;;16.70;99.90;;;;;;1893723;74;21184;-76
2023/06/03 06:27:00;;;;;;;3.17;2.55;;;16.80;99.90;;;;;;1907779;74;21195;-77
2023/06/03 06:29:53;;;;;;;6.45;2.80;;;16.80;99.90;;;;;;1905709;74;21574;-77
2023/06/03 06:32:50;;;;;;;3.35;2.83;;;16.90;99.90;;;;;;1903545;74;21106;-76
2023/06/03 06:35:43;;;;;;;4.45;2.37;;;17.10;99.90;;;;;;1903408;74;21128;-78
2023/06/03 06:38:37;;;;;;;3.17;2.87;;;17.30;99.90;;;;;;1905670;74;21199;-78
2023/06/03 06:41:31;;;;;;;3.25;2.83;;;17.30;99.90;;;;;;1892917;74;21153;-77
2023/06/03 06:44:22;;;;;;;4.58;2.72;;;17.30;99.90;;;;;;1904837;74;21182;-78
2023/06/03 06:47:16;;;;;;;3.60;2.87;;;17.50;99.90;;;;;;1903421;74;21104;-77
2023/06/03 06:50:12;;;;;;;6.55;2.90;;;17.70;99.90;;;;;;1901661;74;21087;-77
2023/06/03 06:53:04;;;;;;;3.55;3.10;;;17.70;99.90;;;;;;1893029;76;21105;-77
2023/06/03 06:55:57;;;;;;;3.42;2.83;;;17.80;99.90;;;;;;1907164;74;21118;-77
2023/06/03 06:58:50;;;;;;;4.87;3.40;;;17.90;99.90;;;;;;1903746;74;21214;-77
2023/06/03 07:01:44;;;;;;;4.75;3.45;;;18.10;99.90;;;;;;1898642;74;21178;-78
2023/06/03 07:04:36;;;;;;;4.00;3.58;;;18.20;99.90;;;;;;1914717;74;21102;-78
2023/06/03 07:07:29;;;;;;;3.85;3.55;;;18.20;99.90;;;;;;1910555;74;21062;-78
2023/06/03 07:10:23;;;;;;;3.80;3.40;;;18.40;99.90;;;;;;1905353;74;21172;-78
2023/06/03 07:13:15;;;;;;;4.08;3.58;;;18.50;99.90;;;;;;1925681;74;21490;-78
2023/06/03 07:16:09;;;;;;;5.70;3.45;;;18.70;99.90;;;;;;1900727;74;21109;-78
2023/06/03 07:19:02;;;;;;;4.33;3.30;;;18.90;99.90;;;;;;1912714;74;21090;-76
2023/06/03 07:21:59;;;;;;;3.90;2.85;;;18.80;99.90;;;;;;1908781;74;21129;-81
2023/06/03 07:24:52;;;;;;;4.08;3.02;;;18.90;99.90;;;;;;1892674;74;21131;-81
2023/06/03 07:27:44;;;;;;;4.12;3.17;;;18.90;99.90;;;;;;1914851;74;21530;-80
2023/06/03 07:30:37;;;;;;;4.47;3.05;;;18.80;99.90;;;;;;1894420;74;21106;-81
2023/06/03 07:33:35;;;;;;;3.58;3.27;;;18.90;99.90;;;;;;1925170;74;21087;-80
2023/06/03 07:36:28;;;;;;;4.42;3.30;;;18.90;99.90;;;;;;1908435;74;21160;-80
2023/06/03 07:39:21;;;;;;;3.80;3.10;;;19.10;99.90;;;;;;1892402;74;21093;-80
2023/06/03 07:42:25;;;;;;;7.45;3.35;;;19.20;99.90;;;;;;1892517;74;21107;-80
2023/06/03 07:45:30;;;;;;;4.97;3.35;;;19.30;99.90;;;;;;1898238;74;21118;-80
2023/06/03 07:48:26;;;;;;;3.40;3.02;;;19.40;99.90;;;;;;1903410;74;21162;-77
2023/06/03 07:51:19;;;;;;;3.60;3.30;;;19.40;99.90;;;;;;1907912;74;21066;-78
2023/06/03 07:54:12;;;;;;;4.65;4.17;;;19.40;99.90;;;;;;1905783;74;21180;-79
2023/06/03 07:57:05;;;;;;;6.55;4.62;;;19.60;99.90;;;;;;1906258;73;21121;-79
2023/06/03 07:59:58;;;;;;;4.40;3.15;;;19.60;99.90;;;;;;1876891;75;21708;-79
2023/06/03 08:02:49;;;;;;;5.00;3.10;;;19.60;99.90;;;;;;1883366;75;21062;-81
2023/06/03 08:05:42;;;;;;;4.22;3.10;;;19.50;99.90;;;;;;1893709;75;21107;-79
2023/06/03 08:08:35;;;;;;;3.20;2.90;;;19.40;99.90;;;;;;1871140;75;21100;-79
2023/06/03 08:11:26;;;;;;;4.58;3.37;;;19.40;99.90;;;;;;1887633;75;21106;-79
2023/06/03 08:14:19;;;;;;;5.08;3.40;;;19.40;99.90;;;;;;1893931;75;21094;-79
2023/06/03 08:17:12;;;;;;;5.10;3.70;;;19.40;99.90;;;;;;1887725;75;21180;-81
2023/06/03 08:20:08;;;;;;;4.15;3.75;;;19.40;99.90;;;;;;1882913;75;21089;-77
2023/06/03 08:22:58;;;;;;;4.85;3.77;;;19.50;99.90;;;;;;1905414;75;21182;-80
2023/06/03 08:25:53;;;;;;;3.87;3.37;;;19.50;99.90;;;;;;1885286;75;21169;-80
2023/06/03 08:28:44;;;;;;;4.97;3.58;;;19.60;99.90;;;;;;1903948;75;21499;-80
2023/06/03 08:31:36;;;;;;;3.52;3.22;;;19.80;99.90;;;;;;1897369;75;21083;-78
2023/06/03 08:34:28;;;;;;;5.58;3.83;;;19.90;99.90;;;;;;1882132;75;21155;-78
2023/06/03 08:37:19;;;;;;;4.72;4.00;;;19.90;99.90;;;;;;1882182;75;21071;-78
2023/06/03 08:40:13;;;;;;;5.30;4.10;;;20.00;99.90;;;;;;1883209;75;21107;-82
2023/06/03 08:43:06;;;;;;;4.40;3.92;;;20.00;99.90;;;;;;1887338;75;21048;-82
2023/06/03 08:46:02;;;;;;;4.87;4.00;;;20.10;99.90;;;;;;1899378;75;21098;-82
2023/06/03 08:48:58;;;;;;;5.62;3.30;;;20.10;99.90;;;;;;1882196;75;21114;-82
2023/06/03 08:54:35;;;;;;;3.35;3.05;;;20.10;99.90;;;;;;1953800;72;22227;-81
2023/06/03 08:57:28;;;;;;;4.22;3.40;;;20.10;99.90;;;;;;1896773;75;21099;-83
2023/06/03 09:00:23;;;;;;;4.35;3.00;;;20.10;99.90;;;;;;1894611;75;21059;-82
2023/06/03 09:03:16;;;;;;;3.12;2.27;;;20.10;99.90;;;;;;1916521;75;21059;-82
2023/06/03 09:06:10;;;;;;;3.72;3.10;;;20.20;99.90;;;;;;1896246;75;21083;-82
2023/06/03 09:09:02;;;;;;;6.12;2.90;;;20.40;99.90;;;;;;1884128;76;21168;-82
2023/06/03 09:11:56;;;;;;;3.10;2.65;;;20.50;99.90;;;;;;1906071;75;21215;-82
2023/06/03 09:14:48;;;;;;;2.90;2.60;;;20.60;99.90;;;;;;1905929;75;21086;-84
2023/06/03 09:17:41;;;;;;;5.20;2.90;;;20.70;99.90;;;;;;1905938;75;21126;-82
2023/06/03 09:20:33;;;;;;;3.15;2.50;;;20.70;99.90;;;;;;1901944;75;21102;-82
2023/06/03 09:23:24;;;;;;;5.40;2.98;;;20.70;99.90;;;;;;1896857;75;21098;-82
2023/06/03 09:26:16;;;;;;;3.55;2.30;;;20.80;99.90;;;;;;1894793;75;21389;-82
2023/06/03 09:29:07;;;;;;;2.12;1.92;;;20.90;99.90;;;;;;1894925;75;21172;-82
2023/06/03 09:32:00;;;;;;;3.67;2.15;;;21.00;99.90;;;;;;1896576;75;21159;-82
2023/06/03 09:34:54;;;;;;;2.40;2.20;;;21.00;99.90;;;;;;1883928;76;21187;-82
2023/06/03 09:37:59;;;;;;;3.15;2.20;;;21.00;99.90;;;;;;1906071;75;21112;-82
2023/06/03 09:40:50;;;;;;;3.75;2.55;;;21.00;99.90;;;;;;1892322;75;21114;-82
2023/06/03 09:43:44;;;;;;;2.58;2.20;;;21.20;99.90;;;;;;1894576;75;21096;-82
2023/06/03 09:46:35;;;;;;;5.17;2.37;;;21.20;99.90;;;;;;1916513;75;21096;-82
2023/06/03 09:49:27;;;;;;;2.15;1.95;;;21.30;99.90;;;;;;1898452;75;21091;-83
2023/06/03 09:52:33;;;;;;;2.40;2.10;;;21.50;99.90;;;;;;1894793;75;21164;-82
2023/06/03 09:55:32;;;;;;;3.02;2.05;;;21.60;99.90;;;;;;1904015;74;21071;-82
2023/06/03 09:58:24;;;;;;;4.28;2.20;;;21.60;99.90;;;;;;1904281;74;21204;-82
2023/06/03 10:01:18;;;;;;;2.12;1.80;;;21.80;99.90;;;;;;1905458;74;21160;-83
2023/06/03 10:06:51;;;;;;;2.95;2.20;;;21.90;99.90;;;;;;1943449;72;22264;-83
2023/06/03 10:09:44;;;;;;;2.37;2.17;;;22.00;99.90;;;;;;1916879;75;21370;-82
2023/06/03 10:12:36;;;;;;;2.87;2.00;;;22.00;99.90;;;;;;1916786;75;21081;-83
2023/06/03 10:15:38;;;;;;;2.55;2.35;;;22.00;99.90;;;;;;1916474;75;21176;-82
2023/06/03 10:18:40;;;;;;;2.90;2.60;;;22.20;99.90;;;;;;1929612;73;21114;-82
2023/06/03 10:21:34;;;;;;;3.67;2.70;;;22.30;99.90;;;;;;1917431;73;21164;-82
2023/06/03 10:24:27;;;;;;;2.67;2.47;;;22.50;99.90;;;;;;1921273;73;21159;-83
2023/06/03 10:27:20;;;;;;;3.80;2.42;;;22.50;99.90;;;;;;1916734;73;21142;-82
2023/06/03 10:30:13;;;;;;;3.72;2.77;;;22.50;99.90;;;;;;1917065;75;21167;-83
2023/06/03 10:33:08;;;;;;;3.15;2.85;;;22.70;99.90;;;;;;1916770;75;21070;-82
2023/06/03 10:35:59;;;;;;;2.62;2.42;;;23.00;99.90;;;;;;1925972;73;21538;-83
2023/06/03 10:38:53;;;;;;;2.92;2.37;;;23.10;99.90;;;;;;1924283;73;21100;-82
2023/06/03 10:41:46;;;;;;;2.08;1.90;;;23.20;99.90;;;;;;1917514;73;21136;-83
2023/06/03 10:44:38;;;;;;;2.12;1.82;;;23.30;99.90;;;;;;1880887;76;21432;-84
2023/06/03 10:47:32;;;;;;;1.72;1.60;;;23.40;99.90;;;;;;1927018;73;21126;-82
2023/06/03 10:50:27;;;;;;;2.87;1.80;;;23.50;99.90;;;;;;1922315;73;21078;-82
2023/06/03 10:53:23;;;;;;;2.65;1.90;;;23.60;99.90;;;;;;1916666;75;21118;-82
2023/06/03 10:56:19;;;;;;;2.42;1.85;;;23.60;99.90;;;;;;1916810;75;21157;-82
2023/06/03 10:59:14;;;;;;;2.58;2.37;;;23.50;99.90;;;;;;1917041;75;21176;-83
2023/06/03 11:02:07;;;;;;;2.33;2.12;;;23.40;99.90;;;;;;1917107;75;21099;-82
2023/06/03 11:05:24;;;;;;;2.40;2.20;;;23.50;99.90;;;;;;1939745;73;21061;-82
2023/06/03 11:08:17;;;;;;;2.30;2.10;;;23.50;99.90;;;;;;1939412;73;21067;-83
2023/06/03 11:11:07;;;;;;;3.00;2.12;;;23.70;99.90;;;;;;1916617;75;21183;-82
2023/06/03 11:13:59;;;;;;;2.65;1.77;;;23.90;99.90;;;;;;1916945;75;21310;-82
2023/06/03 11:17:10;;;;;;;2.67;2.10;;;23.80;99.90;;;;;;1916770;75;21169;-82
2023/06/03 11:20:02;;;;;;;1.92;1.80;;;24.00;99.90;;;;;;1928241;73;21130;-82
2023/06/03 11:22:55;;;;;;;2.72;2.10;;;24.00;99.90;;;;;;1920165;73;21137;-83
2023/06/03 11:25:47;;;;;;;2.40;1.60;;;24.20;99.90;;;;;;1917619;73;21105;-83
2023/06/03 11:28:39;;;;;;;1.70;1.60;;;24.40;99.90;;;;;;1931032;73;21063;-83
2023/06/03 11:31:32;;;;;;;2.05;1.50;;;24.40;99.90;;;;;;1916130;75;21076;-83
2023/06/03 11:34:27;;;;;;;1.32;1.22;;;24.50;99.90;;;;;;1938942;73;21589;-82
2023/06/03 11:37:19;;;;;;;1.87;1.40;;;24.60;99.90;;;;;;1916188;75;21136;-83
2023/06/03 11:40:14;;;;;;;1.00;1.00;;;24.60;99.90;;;;;;1916051;75;21110;-82
2023/06/03 11:43:09;;;;;;;2.65;2.45;;;24.70;99.90;;;;;;1916197;75;21185;-82
2023/06/03 11:46:07;;;;;;;2.20;2.00;;;24.80;99.90;;;;;;1928490;73;21192;-83
2023/06/03 11:48:59;;;;;;;2.67;2.47;;;25.10;99.90;;;;;;1919042;73;21095;-83
2023/06/03 11:51:53;;;;;;;3.00;2.62;;;25.50;99.90;;;;;;1916224;75;21165;-82
2023/06/03 11:54:48;;;;;;;3.15;2.90;;;25.80;99.90;;;;;;1916291;75;21082;-82
2023/06/03 11:57:39;;;;;;;1.30;1.20;;;26.00;99.90;;;;;;1933637;73;21058;-82
2023/06/03 12:00:31;;;;;;;2.37;2.15;;;26.00;99.90;;;;;;1916213;75;21160;-83
2023/06/03 12:03:22;;;;;;;3.80;3.22;;;25.90;99.90;;;;;;1916305;75;21187;-82
2023/06/03 12:06:14;;;;;;;3.58;2.67;;;26.20;99.90;;;;;;1916329;75;21092;-82
2023/06/03 12:09:06;;;;;;;3.00;2.67;;;26.30;99.90;;;;;;1903839;75;21606;-82
2023/06/03 12:12:03;;;;;;;3.33;3.02;;;26.20;99.90;;;;;;1915993;75;21098;-82
2023/06/03 12:14:58;;;;;;;4.17;3.77;;;26.40;99.90;;;;;;1916032;75;21601;-82
2023/06/03 12:17:58;;;;;;;3.35;3.05;;;26.70;99.90;;;;;;1903767;75;22136;-82
2023/06/03 12:20:51;;;;;;;3.72;3.12;;;26.80;99.90;;;;;;1916103;75;21144;-82
2023/06/03 12:23:47;;;;;;;3.15;2.85;;;27.10;99.90;;;;;;1904172;75;21468;-82
2023/06/03 12:26:41;;;;;;;4.80;3.05;;;27.10;99.90;;;;;;1903800;75;21160;-83
2023/06/03 12:29:35;;;;;;;3.12;2.80;;;27.10;99.90;;;;;;1915836;75;21165;-82
2023/06/03 12:32:32;;;;;;;2.65;2.42;;;26.80;99.90;;;;;;1903607;75;21161;-82
2023/06/03 12:35:27;;;;;;;4.55;3.00;;;26.80;99.90;;;;;;1903871;75;21102;-82
2023/06/03 12:38:23;;;;;;;3.30;3.00;;;26.90;99.90;;;;;;1912506;73;21046;-83
2023/06/03 12:41:19;;;;;;;;;;;26.80;99.90;;;;;;1908417;74;21102;-82
2023/06/03 12:44:11;;;;;;;2.90;2.70;;;26.70;99.90;;;;;;1903905;75;20267;-82
2023/06/03 12:47:06;;;;;;;3.77;2.90;;;26.90;99.90;;;;;;1915690;75;21217;-82
2023/06/03 12:50:10;;;;;;;3.40;3.02;;;27.10;99.90;;;;;;1915919;75;21099;-82
2023/06/03 12:53:18;;;;;;;3.55;3.20;;;27.10;99.90;;;;;;1935843;73;21095;-83
2023/06/03 12:56:12;;;;;;;2.95;2.00;;;27.10;99.90;;;;;;1922303;74;21548;-83
2023/06/03 12:59:05;;;;;;;3.30;2.98;;;27.10;99.90;;;;;;1923557;74;21164;-83
2023/06/03 13:02:01;;;;;;;3.02;2.50;;;27.00;99.90;;;;;;1916065;75;21157;-83
2023/06/03 13:04:56;;;;;;;3.00;2.77;;;27.10;99.90;;;;;;1903883;75;21546;-83
2023/06/03 13:07:49;;;;;;;3.20;2.90;;;27.40;99.90;;;;;;1938757;73;21122;-82
2023/06/03 13:10:43;;;;;;;3.58;3.15;;;27.60;99.90;;;;;;1916126;75;21150;-83
2023/06/03 13:13:36;;;;;;;1.82;1.55;;;27.60;99.90;;;;;;1916004;75;21187;-83
2023/06/03 13:16:31;;;;;;;2.72;1.45;;;27.50;99.90;;;;;;1924853;73;21110;-83
2023/06/03 13:19:24;;;;;;;1.70;1.27;;;27.30;99.90;;;;;;1923598;73;21095;-83
2023/06/03 13:22:17;;;;;;;1.32;1.10;;;27.00;99.90;;;;;;1916198;75;21149;-83
2023/06/03 13:25:10;;;;;;;1.37;1.17;;;27.00;99.90;;;;;;1916178;75;21235;-82
2023/06/03 13:28:03;;;;;;;1.20;1.02;;;27.00;99.90;;;;;;1915947;75;21624;-82
2023/06/03 13:30:55;;;;;;;2.50;1.20;;;26.80;99.90;;;;;;1915715;75;21117;-82
2023/06/03 13:33:48;;;;;;;3.08;1.70;;;26.80;99.90;;;;;;1915985;75;21168;-83
2023/06/03 13:36:41;;;;;;;1.25;1.10;;;26.90;99.90;;;;;;1916303;75;21149;-82
2023/06/03 13:39:35;;;;;;;1.80;1.20;;;27.10;99.90;;;;;;1916147;75;21108;-82
2023/06/03 13:42:28;;;;;;;1.20;1.10;;;27.00;99.90;;;;;;1916183;75;21135;-83
2023/06/03 13:45:23;;;;;;;1.30;1.20;;;27.20;99.90;;;;;;1919545;73;21180;-83
2023/06/03 13:48:14;;;;;;;3.60;0.98;;;27.40;99.90;;;;;;1928646;73;21064;-83
2023/06/03 13:51:06;;;;;;;2.22;1.40;;;27.40;99.90;;;;;;1916306;75;21143;-83
2023/06/03 13:53:59;;;;;;;2.00;1.42;;;27.80;99.90;;;;;;1916031;75;21139;-83
2023/06/03 13:56:53;;;;;;;1.27;1.17;;;28.10;99.90;;;;;;1916212;75;21106;-82
2023/06/03 13:59:45;;;;;;;1.45;1.35;;;28.30;99.90;;;;;;1885952;73;21093;-83
2023/06/03 14:02:37;;;;;;;1.40;1.30;;;28.20;99.90;;;;;;1932051;73;21105;-83
2023/06/03 14:05:28;;;;;;;1.35;1.25;;;28.10;99.90;;;;;;1928336;73;21122;-82
2023/06/03 14:08:20;;;;;;;1.47;1.27;;;28.20;99.90;;;;;;1943293;73;21161;-82
2023/06/03 14:11:11;;;;;;;1.62;1.10;;;28.40;99.90;;;;;;1925415;74;21140;-82
2023/06/03 14:16:44;;;;;;;1.72;1.50;;;28.70;99.90;;;;;;1940607;72;22329;-82
2023/06/03 14:19:35;;;;;;;1.57;1.47;;;28.70;99.90;;;;;;1895887;74;21170;-82
2023/06/03 14:22:28;;;;;;;1.77;1.60;;;28.80;99.90;;;;;;1913042;74;21098;-82
2023/06/03 14:25:20;;;;;;;3.20;1.60;;;29.00;99.90;;;;;;1918899;74;21105;-82
2023/06/03 14:28:11;;;;;;;1.90;1.67;;;28.80;99.90;;;;;;1897013;75;21160;-81
2023/06/03 14:31:03;;;;;;;2.02;1.47;;;28.60;99.90;;;;;;1891634;75;21209;-81
2023/06/03 14:33:54;;;;;;;1.82;1.67;;;28.70;99.90;;;;;;1914245;75;21090;-81
2023/06/03 14:39:25;;;;;;;2.72;1.52;;;28.60;99.90;;;;;;1957487;72;22219;-83
2023/06/03 14:42:18;;;;;;;1.67;1.57;;;28.50;99.90;;;;;;1883974;75;21166;-83
2023/06/03 14:45:11;;;;;;;2.35;1.85;;;28.40;99.90;;;;;;1893948;75;21107;-83
2023/06/03 14:48:03;;;;;;;2.40;2.20;;;28.10;99.90;;;;;;1889146;75;21452;-83
2023/06/03 14:50:55;;;;;;;2.20;2.00;;;28.00;99.90;;;;;;1883442;75;21170;-83
2023/06/03 14:53:46;;;;;;;3.37;2.00;;;28.10;99.90;;;;;;1882689;75;21091;-84
2023/06/03 14:56:38;;;;;;;3.08;1.95;;;28.10;99.90;;;;;;1882543;75;21221;-84
2023/06/03 14:59:33;;;;;;;2.35;2.15;;;27.80;99.90;;;;;;1886510;75;21104;-83
2023/06/03 15:02:24;;;;;;;2.72;2.02;;;27.50;99.90;;;;;;1885164;75;21177;-83
2023/06/03 15:05:16;;;;;;;2.12;1.82;;;27.40;99.90;;;;;;1882320;75;21109;-83
2023/06/03 15:08:07;;;;;;;2.20;2.00;;;27.10;99.90;;;;;;1900812;75;21135;-83
2023/06/03 15:10:59;;;;;;;2.22;2.00;;;26.80;99.90;;;;;;1871857;76;21122;-83
2023/06/03 15:13:51;;;;;;;2.37;2.15;;;26.70;99.90;;;;;;1872121;75;21513;-83
2023/06/03 15:16:42;;;;;;;2.70;2.05;;;26.60;99.90;;;;;;1882067;75;21658;-83
2023/06/03 15:19:33;;;;;;;2.80;2.10;;;26.60;99.90;;;;;;1883157;75;21055;-83
2023/06/03 15:22:25;;;;;;;2.12;1.90;;;26.60;99.90;;;;;;1888899;75;21040;-83
2023/06/03 15:25:17;;;;;;;2.25;1.90;;;26.60;99.90;;;;;;1866496;76;21192;-83